CWRX

Rowley Island Airport

Canada
METAR CWRX 250600Z AUTO 22012G22KT ////SM //// OVC047 01/01 A2952
Observed Flight Rules
Jun-25 @ 06:00 UTC (19 minutes ago)
Wind Clouds
220° at 12 knots
 Gusting to 22 knots
  • Overcast at 4,700' AGL
Temperatures Readings
Current 1°C / 34°F
Dewpoint 1°C / 34°F
Humidity 100%
Altimeter 29.52" Hg
Pressure 1000 hPa
Elevation 41
METAR CWRX 250600Z AUTO 22012G22KT ////SM //// OVC047 01/01 A2952
Observed Flight Rules
Jun-25 @ 06:00 UTC
(19 minutes ago)
Wind
220° at 12 knots
 Gusting to 22 knots
Clouds
  • Overcast at 4,700' AGL
Temperature Dewpoint
1°C / 34°F 1°C / 34°F
Humidity Altimeter Pressure
100% 29.52" Hg 1000 hPa